createdAt,value
2018-11-22T12:17:27.079Z,88.20
2018-11-22T12:19:55.661Z,90.90
2018-11-22T12:22:24.211Z,91.20
2018-11-22T12:24:52.775Z,91.40
2018-11-22T12:27:21.314Z,85.80
2018-11-22T12:29:49.878Z,87.20
2018-11-22T12:33:26.711Z,85.20
2018-11-22T12:36:00.581Z,90.10
2018-11-22T12:38:32.020Z,90.40
2018-11-22T12:41:00.568Z,87.80
2018-11-22T12:43:29.266Z,87.50
2018-11-22T12:45:57.813Z,89.00
2018-11-22T12:48:26.447Z,88.60
2018-11-22T12:50:55.436Z,87.60
2018-11-22T12:53:24.014Z,90.80
2018-11-22T12:55:52.618Z,90.10
2018-11-22T12:58:21.162Z,89.70
2018-11-22T13:00:49.774Z,89.10
2018-11-22T13:03:18.305Z,91.40
2018-11-22T13:05:46.921Z,91.00
2018-11-22T13:08:15.450Z,91.00
2018-11-22T13:10:43.977Z,90.70
2018-11-22T13:13:12.519Z,90.30
2018-11-22T13:15:41.059Z,91.00
2018-11-22T13:18:09.575Z,91.30
2018-11-22T13:20:38.144Z,90.60
2018-11-22T13:23:06.650Z,90.60
2018-11-22T13:25:35.204Z,91.10
2018-11-22T13:28:03.783Z,90.60
2018-11-22T13:30:32.316Z,91.10
2018-11-22T13:33:00.856Z,91.30
2018-11-22T13:35:29.383Z,91.20
2018-11-22T13:37:58.375Z,90.90
2018-11-22T13:40:26.882Z,90.30
2018-11-22T13:42:56.020Z,90.90
2018-11-22T13:45:26.092Z,91.30
2018-11-22T13:47:55.542Z,91.30
2018-11-22T13:50:29.375Z,91.10
2018-11-22T13:52:59.748Z,90.70
2018-11-22T13:55:28.317Z,91.00
2018-11-22T13:57:57.121Z,91.20
2018-11-22T14:00:28.330Z,91.20
2018-11-22T14:02:58.378Z,91.20
2018-11-22T14:05:27.163Z,91.10
2018-11-22T14:07:55.724Z,91.40
2018-11-22T14:10:24.259Z,91.20
2018-11-22T14:12:52.812Z,90.60
2018-11-22T14:15:22.747Z,91.20
2018-11-22T14:17:52.775Z,91.00
2018-11-22T14:20:23.727Z,91.40
2018-11-22T14:22:52.241Z,92.60
2018-11-22T14:25:20.748Z,91.80
2018-11-22T14:27:50.374Z,91.50
2018-11-22T14:30:20.386Z,91.90
2018-11-22T14:32:49.899Z,91.60
2018-11-22T14:35:19.480Z,91.50
2018-11-22T14:37:48.068Z,91.70
2018-11-22T14:40:22.283Z,91.60
2018-11-22T14:42:51.817Z,91.50
2018-11-22T14:45:20.390Z,92.00
2018-11-22T14:47:50.002Z,91.90
2018-11-22T14:50:22.540Z,92.00
2018-11-22T14:53:22.921Z,92.40
2018-11-22T14:55:58.387Z,92.50
2018-11-22T14:58:26.927Z,92.70
2018-11-22T15:00:55.477Z,92.30
2018-11-22T15:03:24.069Z,92.50
2018-11-22T15:05:52.615Z,92.20
2018-11-22T15:08:21.136Z,92.50
2018-11-22T15:10:49.637Z,93.00
2018-11-22T15:13:18.184Z,92.80
2018-11-22T15:15:46.705Z,92.00
2018-11-22T15:18:15.495Z,92.80
2018-11-22T15:20:44.116Z,92.50
2018-11-22T15:23:12.664Z,92.10
2018-11-22T15:25:41.223Z,92.30
2018-11-22T15:28:09.775Z,92.90
2018-11-22T15:30:39.845Z,92.50
2018-11-22T15:33:09.067Z,92.00
2018-11-22T15:35:37.576Z,92.90
2018-11-22T15:38:06.213Z,92.80
2018-11-22T15:40:34.718Z,93.10
2018-11-22T15:43:04.010Z,93.10
2018-11-22T15:45:35.290Z,93.60
2018-11-22T15:48:01.148Z,93.10
2018-11-22T15:50:30.143Z,92.40
2018-11-22T15:52:58.677Z,92.40
2018-11-22T15:55:27.818Z,92.90
2018-11-22T15:57:58.064Z,92.50
2018-11-22T16:00:30.963Z,92.40
2018-11-22T16:03:00.139Z,92.40
2018-11-22T16:05:29.227Z,92.70
2018-11-22T16:07:57.788Z,93.80
2018-11-22T16:10:27.715Z,93.80
2018-11-22T16:12:57.954Z,94.50
2018-11-22T16:15:34.214Z,95.10
2018-11-22T16:18:03.151Z,93.70
2018-11-22T16:20:31.667Z,92.80
2018-11-22T16:23:00.291Z,94.40
2018-11-22T16:25:28.830Z,95.00
2018-11-22T16:27:57.490Z,94.00
2018-11-22T16:30:27.440Z,93.50
2018-11-22T16:32:56.047Z,93.80
2018-11-22T16:35:28.787Z,93.30
2018-11-22T16:37:54.135Z,92.80
2018-11-22T16:40:25.103Z,92.70
2018-11-22T16:42:54.580Z,92.80
2018-11-22T16:45:25.501Z,92.70
2018-11-22T16:47:54.226Z,92.80
2018-11-22T16:50:24.255Z,92.80
2018-11-22T16:52:53.118Z,93.20
2018-11-22T16:55:22.235Z,92.60
2018-11-22T16:57:51.830Z,92.70
2018-11-22T17:00:27.792Z,92.50
2018-11-22T17:02:57.716Z,92.50
2018-11-22T17:05:26.379Z,92.10
2018-11-22T17:07:54.968Z,92.60
2018-11-22T17:10:24.856Z,92.70
2018-11-22T17:12:54.718Z,92.70
2018-11-22T17:15:24.494Z,93.80
2018-11-22T17:17:53.646Z,93.60
2018-11-22T17:20:23.831Z,94.00
2018-11-22T17:22:53.108Z,94.50
2018-11-22T17:25:26.150Z,94.70
2018-11-22T17:27:57.080Z,93.40
2018-11-22T17:30:28.199Z,93.70
2018-11-22T17:32:56.727Z,93.00
2018-11-22T17:35:26.283Z,92.60
2018-11-22T17:37:56.121Z,92.60
2018-11-22T17:40:32.856Z,92.60
2018-11-22T17:43:01.391Z,92.70
2018-11-22T17:45:32.131Z,92.60
2018-11-22T17:48:00.894Z,92.50
2018-11-22T17:50:31.127Z,92.80
2018-11-22T17:53:00.068Z,92.80
2018-11-22T17:55:29.509Z,92.80
2018-11-22T17:57:58.051Z,93.80
2018-11-22T18:00:28.982Z,94.10
2018-11-22T18:02:58.909Z,91.50
2018-11-22T18:05:27.652Z,89.30
2018-11-22T18:07:56.203Z,86.90
2018-11-22T18:10:27.339Z,87.70
2018-11-22T18:12:56.514Z,86.00
2018-11-22T18:15:25.890Z,85.70
2018-11-22T18:17:55.230Z,84.70
2018-11-22T18:20:25.266Z,86.00
2018-11-22T18:22:54.951Z,91.70
2018-11-22T18:25:25.096Z,92.70
2018-11-22T18:27:53.894Z,91.90
2018-11-22T18:30:23.933Z,88.00
2018-11-22T18:32:53.894Z,87.10
2018-11-22T18:35:22.444Z,85.80
2018-11-22T18:37:50.941Z,86.70
2018-11-22T18:40:20.899Z,88.00
2018-11-22T18:42:50.385Z,88.30
2018-11-22T18:45:24.223Z,87.50
2018-11-22T18:47:52.739Z,85.80
2018-11-22T18:50:22.807Z,89.00
2018-11-22T18:52:51.389Z,87.60
2018-11-22T18:55:19.930Z,86.30
2018-11-22T18:57:48.471Z,85.90
2018-11-22T19:00:20.707Z,86.00
2018-11-22T19:02:49.398Z,87.30
2018-11-22T19:05:19.141Z,87.90
2018-11-22T19:07:49.363Z,87.00
2018-11-22T19:10:22.445Z,86.40
2018-11-22T19:12:52.415Z,86.90
2018-11-22T19:15:22.478Z,87.10
2018-11-22T19:17:51.667Z,87.70
2018-11-22T19:20:22.776Z,87.50
2018-11-22T19:22:52.017Z,87.30
2018-11-22T19:25:21.359Z,87.40
2018-11-22T19:27:50.283Z,88.90
2018-11-22T19:30:22.043Z,88.20
2018-11-22T19:32:51.552Z,87.70
2018-11-22T19:35:21.828Z,88.30
2018-11-22T19:37:50.661Z,88.30
2018-11-22T19:40:35.371Z,88.00
2018-11-22T19:43:05.342Z,88.80
2018-11-22T19:45:35.517Z,91.20
2018-11-22T19:48:04.051Z,90.40
2018-11-22T19:50:33.063Z,88.90
2018-11-22T19:53:03.057Z,88.40
2018-11-22T19:55:32.777Z,88.10
2018-11-22T19:58:04.320Z,89.70
2018-11-22T20:00:33.031Z,89.40
2018-11-22T20:03:02.801Z,88.90
2018-11-22T20:05:32.566Z,88.90
2018-11-22T20:08:02.799Z,88.40
2018-11-22T20:10:33.724Z,88.60
2018-11-22T20:13:02.256Z,88.60
2018-11-22T20:15:31.093Z,88.30
2018-11-22T20:18:00.570Z,88.60
2018-11-22T20:20:29.382Z,88.90
2018-11-22T20:22:58.450Z,89.70
2018-11-22T20:25:27.361Z,89.50
2018-11-22T20:27:56.762Z,89.90
2018-11-22T20:30:28.059Z,92.10
2018-11-22T20:32:56.580Z,94.20
2018-11-22T20:35:25.194Z,95.60
2018-11-22T20:37:54.047Z,92.30
2018-11-22T20:40:23.719Z,91.90
2018-11-22T20:42:52.422Z,91.20
2018-11-22T20:45:22.509Z,90.70
2018-11-22T20:47:52.724Z,91.20
2018-11-22T20:50:22.842Z,90.80
2018-11-22T20:52:51.357Z,90.40
2018-11-22T20:55:22.694Z,90.40
2018-11-22T20:57:53.133Z,91.10
2018-11-22T21:00:23.106Z,91.00
2018-11-22T21:02:51.613Z,90.80
2018-11-22T21:05:20.897Z,91.80
2018-11-22T21:07:49.444Z,91.70
2018-11-22T21:10:22.504Z,91.00
2018-11-22T21:12:51.019Z,90.80
2018-11-22T21:15:22.341Z,90.80
2018-11-22T21:17:52.203Z,90.80
2018-11-22T21:20:22.426Z,90.70
2018-11-22T21:22:50.975Z,90.90
2018-11-22T21:25:20.295Z,91.80
2018-11-22T21:27:48.873Z,94.00
2018-11-22T21:30:24.231Z,94.00
2018-11-22T21:32:53.333Z,93.50
2018-11-22T21:35:22.226Z,92.90
2018-11-22T21:37:51.930Z,92.40
2018-11-22T21:40:21.107Z,93.70
2018-11-22T21:42:50.102Z,92.60
2018-11-22T21:45:20.127Z,95.00
2018-11-22T21:47:48.943Z,93.80
2018-11-22T21:50:18.721Z,92.60
2018-11-22T21:52:47.274Z,94.90
2018-11-22T21:55:17.442Z,93.50
2018-11-22T21:57:46.647Z,93.60
2018-11-22T22:00:18.016Z,94.30
2018-11-22T22:02:52.415Z,93.30
2018-11-22T22:05:16.901Z,94.50
2018-11-22T22:07:45.446Z,93.20
2018-11-22T22:10:13.972Z,92.10
2018-11-22T22:12:42.861Z,91.90
2018-11-22T22:15:14.055Z,91.90
2018-11-22T22:17:43.654Z,94.30
2018-11-22T22:20:15.205Z,93.70
2018-11-22T22:22:44.350Z,94.00
2018-11-22T22:25:14.669Z,93.60
2018-11-22T22:27:43.787Z,93.70
2018-11-22T22:30:14.608Z,92.90
2018-11-22T22:32:44.018Z,94.00
2018-11-22T22:35:12.537Z,93.00
2018-11-22T22:37:41.391Z,92.90
2018-11-22T22:40:15.867Z,92.30
2018-11-22T22:42:45.742Z,92.00
2018-11-22T22:45:15.272Z,91.70
2018-11-22T22:47:44.561Z,92.00
2018-11-22T22:50:15.566Z,92.10
2018-11-22T22:52:44.557Z,91.80
2018-11-22T22:55:13.677Z,91.80
2018-11-22T22:57:42.848Z,91.80
2018-11-22T23:00:19.662Z,91.90
2018-11-22T23:02:49.259Z,91.70
2018-11-22T23:05:17.786Z,91.70
2018-11-22T23:07:46.608Z,91.70
2018-11-22T23:10:15.646Z,91.70
2018-11-22T23:12:44.170Z,91.90
2018-11-22T23:15:14.319Z,91.90
2018-11-22T23:17:43.289Z,91.70
2018-11-22T23:20:14.640Z,91.70
2018-11-22T23:22:43.860Z,91.80
2018-11-22T23:25:13.167Z,91.70
2018-11-22T23:27:42.026Z,91.80
2018-11-22T23:30:25.687Z,91.90
2018-11-22T23:32:56.632Z,91.70
2018-11-22T23:35:25.105Z,91.80
2018-11-22T23:37:54.079Z,91.70
2018-11-22T23:40:24.732Z,91.70
2018-11-22T23:42:53.228Z,91.80
2018-11-22T23:45:23.027Z,91.70
2018-11-22T23:47:51.797Z,91.80
2018-11-22T23:50:21.591Z,91.80
2018-11-22T23:52:51.418Z,91.70
2018-11-22T23:55:19.946Z,91.70
2018-11-22T23:57:48.687Z,91.70
